Time;durP1;ratioP1;P1;durP2;ratioP2;P2;SDS_P1;SDS_P2;PMS_P1;PMS_P2;Temp;Humidity;BMP_temperature;BMP_pressure;BME280_temperature;BME280_humidity;BME280_pressure;Samples;Min_cycle;Max_cycle;Signal;HPM_P1;HPM_P2
2021/10/21 00:01:27;;;;;;;12.30;7.80;;;;;;;15.50;55.44;99192.83;116798;1191;23536;-80
2021/10/21 00:03:59;;;;;;;8.20;6.70;;;;;;;15.48;55.56;99191.86;116792;1191;21993;-79
2021/10/21 00:06:28;;;;;;;9.50;7.30;;;;;;;15.46;55.77;99185.80;116917;1190;22609;-80
2021/10/21 00:08:58;;;;;;;11.10;7.90;;;;;;;15.45;55.76;99191.78;116501;1192;21909;-78
2021/10/21 00:11:28;;;;;;;10.20;7.10;;;;;;;15.45;55.82;99190.02;116562;1192;23436;-78
2021/10/21 00:13:58;;;;;;;9.70;7.30;;;;;;;15.45;55.81;99186.46;116601;1191;21891;-79
2021/10/21 00:16:27;;;;;;;11.70;7.00;;;;;;;15.45;55.80;99186.83;116770;1191;22842;-78
2021/10/21 00:18:57;;;;;;;7.80;7.10;;;;;;;15.45;55.86;99184.92;116764;1180;21940;-79
2021/10/21 00:21:26;;;;;;;8.60;7.30;;;;;;;15.44;55.86;99184.47;116804;1190;22009;-79
2021/10/21 00:23:55;;;;;;;13.50;8.30;;;;;;;15.44;56.00;99180.25;116616;1191;21877;-79
2021/10/21 00:26:25;;;;;;;12.30;8.50;;;;;;;15.43;55.99;99175.97;116649;1190;22811;-79
2021/10/21 00:28:54;;;;;;;11.30;9.30;;;;;;;15.41;56.13;99171.73;116575;1190;24154;-78
2021/10/21 00:31:23;;;;;;;12.00;8.40;;;;;;;15.38;56.05;99166.91;116612;1191;22796;-78
2021/10/21 00:33:52;;;;;;;13.60;8.80;;;;;;;15.33;56.14;99160.56;116356;1194;23546;-79
2021/10/21 00:36:21;;;;;;;10.40;8.00;;;;;;;15.29;56.31;99155.83;116481;1194;21930;-79
2021/10/21 00:38:51;;;;;;;10.70;7.20;;;;;;;15.25;56.31;99155.45;116474;1194;21942;-78
2021/10/21 00:41:21;;;;;;;11.70;7.60;;;;;;;15.19;56.46;99152.17;116468;1194;21901;-78
2021/10/21 00:43:50;;;;;;;9.90;7.20;;;;;;;15.15;56.64;99148.87;116442;1195;22908;-79
2021/10/21 00:46:20;;;;;;;9.20;7.80;;;;;;;15.13;56.79;99150.29;116307;1193;23455;-79
2021/10/21 00:48:49;;;;;;;10.20;8.70;;;;;;;15.08;56.86;99149.80;116573;1192;24387;-79
2021/10/21 00:51:18;;;;;;;12.80;7.90;;;;;;;15.02;56.91;99143.64;116515;1191;21900;-78
2021/10/21 00:53:48;;;;;;;9.00;7.80;;;;;;;14.97;56.94;99135.59;116785;1191;22269;-79
2021/10/21 00:56:18;;;;;;;8.70;7.40;;;;;;;14.92;57.22;99130.34;116749;1189;23493;-78
2021/10/21 00:58:50;;;;;;;13.50;9.40;;;;;;;14.86;57.43;99123.72;116459;1193;23608;-78
2021/10/21 01:01:24;;;;;;;8.10;7.20;;;;;;;14.81;57.56;99126.36;116476;1191;21884;-79
2021/10/21 01:03:54;;;;;;;9.80;7.60;;;;;;;14.79;57.73;99124.79;116789;1190;21995;-80
2021/10/21 01:06:23;;;;;;;9.60;8.20;;;;;;;14.74;57.77;99116.25;116554;1192;21885;-79
2021/10/21 01:08:53;;;;;;;8.30;7.40;;;;;;;14.70;57.97;99116.11;116980;1191;22900;-79
2021/10/21 01:11:22;;;;;;;12.00;8.50;;;;;;;14.68;58.14;99108.24;116498;1192;21918;-79
2021/10/21 01:13:52;;;;;;;13.30;8.40;;;;;;;14.69;58.08;99103.33;116517;1193;21900;-79
2021/10/21 01:16:21;;;;;;;9.30;7.30;;;;;;;14.69;58.07;99108.77;116508;1191;23442;-79
2021/10/21 01:18:50;;;;;;;8.80;7.50;;;;;;;14.70;58.17;99105.92;116626;1192;21901;-79
2021/10/21 01:21:20;;;;;;;8.70;7.90;;;;;;;14.70;58.25;99098.98;116795;1184;22812;-79
2021/10/21 01:23:49;;;;;;;9.00;7.60;;;;;;;14.70;58.30;99091.16;116760;1191;21906;-79
2021/10/21 01:26:18;;;;;;;8.20;7.40;;;;;;;14.68;58.25;99083.09;116805;1187;21928;-80
2021/10/21 01:28:47;;;;;;;8.90;7.60;;;;;;;14.64;58.17;99075.42;116821;1191;22117;-80
2021/10/21 01:31:16;;;;;;;9.90;7.50;;;;;;;14.60;58.32;99066.98;116578;1189;22913;-78
2021/10/21 01:33:45;;;;;;;13.90;8.80;;;;;;;14.59;58.47;99062.54;116849;1189;21877;-79
2021/10/21 01:36:15;;;;;;;9.20;7.80;;;;;;;14.58;58.37;99057.68;116884;1189;23463;-79
2021/10/21 01:38:44;;;;;;;10.30;8.80;;;;;;;14.58;58.42;99047.20;116894;1189;22851;-78
2021/10/21 01:41:13;;;;;;;11.20;7.50;;;;;;;14.56;58.55;99044.04;116942;1189;22829;-79
2021/10/21 01:43:46;;;;;;;8.20;7.40;;;;;;;14.55;58.75;99041.96;116892;1188;22412;-78
2021/10/21 01:46:15;;;;;;;8.80;6.90;;;;;;;14.53;58.69;99036.92;116913;1187;21904;-79
2021/10/21 01:48:44;;;;;;;7.70;7.00;;;;;;;14.52;58.73;99031.59;117001;1188;21904;-79
2021/10/21 01:51:15;;;;;;;9.00;7.90;;;;;;;14.54;58.91;99026.21;116952;1188;23467;-79
2021/10/21 01:53:44;;;;;;;10.50;8.50;;;;;;;14.56;58.89;99014.00;116844;1176;21902;-79
2021/10/21 01:56:14;;;;;;;12.00;8.90;;;;;;;14.56;58.87;99008.26;117046;1189;21912;-79
2021/10/21 01:58:46;;;;;;;10.40;9.10;;;;;;;14.56;58.86;99012.23;116965;1189;21883;-79
2021/10/21 02:01:16;;;;;;;9.80;8.40;;;;;;;14.54;58.74;99009.33;117171;1189;21870;-79
2021/10/21 02:03:45;;;;;;;9.50;8.50;;;;;;;14.48;58.84;99004.31;117012;1189;22909;-80
2021/10/21 02:06:15;;;;;;;8.90;8.00;;;;;;;14.45;59.08;99005.02;116855;1191;21918;-80
2021/10/21 02:08:44;;;;;;;12.90;9.40;;;;;;;14.44;59.19;99002.77;116613;1190;22754;-80
2021/10/21 02:11:14;;;;;;;9.60;8.60;;;;;;;14.43;59.16;99008.95;116867;1191;24231;-79
2021/10/21 02:13:43;;;;;;;10.20;9.30;;;;;;;14.41;59.06;99004.70;116538;1193;21900;-81
2021/10/21 02:16:13;;;;;;;15.20;8.50;;;;;;;14.36;59.13;98994.77;116635;1193;21879;-79
2021/10/21 02:18:42;;;;;;;10.80;9.50;;;;;;;14.34;59.20;98992.77;116501;1193;22061;-79
2021/10/21 02:21:11;;;;;;;10.00;9.00;;;;;;;14.32;59.18;98986.30;116469;1190;22100;-80
2021/10/21 02:23:40;;;;;;;13.80;10.20;;;;;;;14.30;59.37;98978.48;116498;1179;21878;-79
2021/10/21 02:26:09;;;;;;;11.40;9.30;;;;;;;14.27;59.40;98973.24;116494;1194;23044;-80
2021/10/21 02:28:39;;;;;;;11.90;9.70;;;;;;;14.23;59.49;98967.88;116535;1194;23550;-79
2021/10/21 02:31:08;;;;;;;11.50;9.50;;;;;;;14.21;59.67;98962.66;116267;1193;21902;-80
2021/10/21 02:33:37;;;;;;;12.80;9.80;;;;;;;14.20;59.81;98962.11;116744;1193;21886;-80
2021/10/21 02:36:06;;;;;;;10.40;9.00;;;;;;;14.18;59.75;98957.69;116500;1192;23442;-79
2021/10/21 02:38:35;;;;;;;13.20;10.20;;;;;;;14.15;59.84;98953.05;116487;1193;23691;-79
2021/10/21 02:41:05;;;;;;;11.30;10.10;;;;;;;14.12;59.94;98951.83;116503;1188;21941;-79
2021/10/21 02:43:35;;;;;;;13.80;9.40;;;;;;;14.11;60.08;98952.06;116871;1192;21902;-79
2021/10/21 02:46:04;;;;;;;10.30;9.20;;;;;;;14.11;60.13;98945.89;116753;1191;22975;-80
2021/10/21 02:48:34;;;;;;;11.90;10.00;;;;;;;14.10;60.06;98941.77;116723;1190;23126;-80
2021/10/21 02:51:03;;;;;;;10.80;9.20;;;;;;;14.09;60.16;98936.96;116983;1192;22957;-80
2021/10/21 02:53:32;;;;;;;13.00;9.40;;;;;;;14.07;60.16;98932.73;116454;1194;23462;-79
2021/10/21 02:56:01;;;;;;;11.10;10.00;;;;;;;14.07;60.20;98926.41;116483;1195;22983;-79
2021/10/21 02:58:30;;;;;;;9.10;8.20;;;;;;;14.07;60.11;98926.04;116460;1195;22915;-79
2021/10/21 03:01:00;;;;;;;10.60;9.50;;;;;;;14.06;60.11;98918.66;116122;1196;23877;-80
2021/10/21 03:03:29;;;;;;;10.30;9.30;;;;;;;14.05;60.21;98920.07;116124;1198;22922;-79
2021/10/21 03:05:59;;;;;;;11.00;9.80;;;;;;;14.05;60.33;98904.59;116096;1195;21971;-78
2021/10/21 03:08:28;;;;;;;11.20;9.10;;;;;;;14.06;60.31;98897.70;116075;1195;21912;-79
2021/10/21 03:10:58;;;;;;;10.40;9.40;;;;;;;14.06;60.34;98895.58;116451;1193;21986;-79
2021/10/21 03:13:27;;;;;;;13.10;10.10;;;;;;;14.07;60.30;98889.07;116508;1192;24029;-79
2021/10/21 03:15:57;;;;;;;12.00;9.10;;;;;;;14.09;60.22;98892.56;116735;1192;23008;-78
2021/10/21 03:18:26;;;;;;;11.00;8.90;;;;;;;14.13;60.25;98883.59;116462;1192;24293;-79
2021/10/21 03:20:56;;;;;;;10.80;9.50;;;;;;;14.18;60.27;98872.30;116710;1192;21893;-79
2021/10/21 03:23:26;;;;;;;10.90;9.60;;;;;;;14.18;59.97;98860.36;116496;1189;23634;-78
2021/10/21 03:25:55;;;;;;;9.70;8.40;;;;;;;14.19;59.95;98845.64;116752;1192;21980;-78
2021/10/21 03:28:24;;;;;;;11.60;9.40;;;;;;;14.20;59.88;98850.40;116694;1190;22734;-79
2021/10/21 03:30:54;;;;;;;10.50;8.40;;;;;;;14.21;59.79;98857.16;116701;1192;21883;-79
2021/10/21 03:33:23;;;;;;;9.60;8.60;;;;;;;14.23;59.77;98861.59;116507;1187;21904;-80
2021/10/21 03:35:53;;;;;;;9.60;8.50;;;;;;;14.24;59.80;98861.92;116313;1187;21938;-78
2021/10/21 03:38:22;;;;;;;10.60;8.40;;;;;;;14.25;59.65;98861.67;116677;1191;23501;-79
2021/10/21 03:40:51;;;;;;;8.80;7.80;;;;;;;14.28;59.61;98860.08;116562;1188;23542;-79
2021/10/21 03:43:22;;;;;;;10.60;9.50;;;;;;;14.29;59.62;98851.97;116800;1191;21901;-78
2021/10/21 03:45:52;;;;;;;10.80;8.80;;;;;;;14.30;59.69;98847.20;116797;1191;21910;-79
2021/10/21 03:48:22;;;;;;;14.60;9.40;;;;;;;14.30;59.67;98843.70;116824;1191;21898;-78
2021/10/21 03:50:52;;;;;;;16.20;9.20;;;;;;;14.32;59.63;98848.33;116788;1189;21870;-79
2021/10/21 03:53:21;;;;;;;10.50;9.50;;;;;;;14.36;59.58;98848.55;116989;1189;23466;-78
2021/10/21 03:55:50;;;;;;;12.30;8.30;;;;;;;14.37;59.36;98853.84;116957;1185;21958;-79
2021/10/21 03:58:21;;;;;;;10.80;9.80;;;;;;;14.39;59.49;98857.14;116806;1191;21893;-79
2021/10/21 04:00:50;;;;;;;13.00;8.10;;;;;;;14.42;59.38;98855.82;116880;1188;22899;-79
2021/10/21 04:03:19;;;;;;;10.60;9.10;;;;;;;14.46;59.38;98857.52;116863;1187;22010;-79
2021/10/21 04:05:48;;;;;;;10.60;9.40;;;;;;;14.51;59.41;98860.47;116871;1188;21939;-79
2021/10/21 04:08:17;;;;;;;11.10;8.40;;;;;;;14.55;59.33;98867.80;116631;1193;24206;-80
2021/10/21 04:10:46;;;;;;;10.50;9.40;;;;;;;14.60;59.29;98864.58;116679;1190;21872;-79
2021/10/21 04:13:17;;;;;;;10.10;9.20;;;;;;;14.65;59.17;98858.45;116325;1193;23678;-80
2021/10/21 04:15:47;;;;;;;9.70;8.00;;;;;;;14.67;59.03;98857.39;116519;1193;22082;-80
2021/10/21 04:18:16;;;;;;;11.30;9.00;;;;;;;14.69;59.01;98848.77;116258;1196;23480;-79
2021/10/21 04:20:49;;;;;;;9.60;8.40;;;;;;;14.71;59.04;98845.80;116318;1196;23597;-79
2021/10/21 04:23:18;;;;;;;10.00;8.10;;;;;;;14.73;59.07;98847.80;116250;1198;21891;-79
2021/10/21 04:25:48;;;;;;;9.70;8.70;;;;;;;14.75;59.02;98851.04;116266;1196;23680;-79
2021/10/21 04:28:17;;;;;;;10.40;8.60;;;;;;;14.78;58.97;98850.95;116577;1193;24245;-79
2021/10/21 04:30:46;;;;;;;12.60;8.60;;;;;;;14.79;58.77;98853.54;116351;1195;23469;-80
2021/10/21 04:33:17;;;;;;;10.80;8.30;;;;;;;14.83;58.76;98857.45;116453;1195;21915;-78
2021/10/21 04:35:46;;;;;;;9.50;8.40;;;;;;;14.85;58.74;98851.40;116526;1193;22346;-79
2021/10/21 04:38:16;;;;;;;11.20;9.50;;;;;;;14.87;58.50;98840.36;116285;1197;21890;-79
2021/10/21 04:40:45;;;;;;;10.10;8.60;;;;;;;14.87;58.61;98843.30;116281;1193;21919;-80
2021/10/21 04:43:14;;;;;;;11.50;9.20;;;;;;;14.88;58.56;98846.61;116446;1191;22181;-79
2021/10/21 04:45:43;;;;;;;10.70;9.20;;;;;;;14.91;58.63;98843.44;116783;1190;22906;-78
2021/10/21 04:48:13;;;;;;;19.50;10.20;;;;;;;14.95;58.71;98839.80;116774;1192;21927;-79
2021/10/21 04:50:43;;;;;;;10.50;9.60;;;;;;;14.98;58.56;98838.10;116752;1189;22207;-79
2021/10/21 04:53:13;;;;;;;10.20;9.20;;;;;;;15.01;58.59;98835.77;116254;1193;22101;-79
2021/10/21 04:55:42;;;;;;;10.80;9.70;;;;;;;15.03;58.57;98828.48;116318;1192;21901;-79
2021/10/21 04:58:11;;;;;;;12.30;10.50;;;;;;;15.03;58.45;98833.42;116585;1191;22267;-78
2021/10/21 05:00:41;;;;;;;9.90;8.90;;;;;;;15.04;58.47;98841.42;116444;1195;23570;-79
2021/10/21 05:03:15;;;;;;;13.30;9.70;;;;;;;15.03;58.49;98840.55;116508;1195;22332;-81
2021/10/21 05:05:48;;;;;;;11.60;9.40;;;;;;;15.00;58.57;98831.65;116525;1195;21955;-80
2021/10/21 05:08:17;;;;;;;12.40;10.10;;;;;;;14.96;58.55;98828.92;116661;1193;21889;-80
2021/10/21 05:10:46;;;;;;;10.80;9.70;;;;;;;14.91;58.74;98819.72;116380;1193;22921;-78
2021/10/21 05:13:16;;;;;;;11.50;9.60;;;;;;;14.86;58.94;98808.64;116552;1193;21900;-78
2021/10/21 05:15:45;;;;;;;11.00;9.20;;;;;;;14.81;59.06;98795.88;116503;1186;23527;-78
2021/10/21 05:18:15;;;;;;;13.00;11.10;;;;;;;14.78;59.31;98800.98;116443;1190;21883;-78
2021/10/21 05:20:45;;;;;;;11.50;10.30;;;;;;;14.78;59.44;98804.69;116752;1190;21884;-79
2021/10/21 05:23:14;;;;;;;13.40;10.60;;;;;;;14.78;59.38;98815.23;116462;1190;21894;-79
2021/10/21 05:25:44;;;;;;;12.30;9.00;;;;;;;14.78;59.39;98811.14;116456;1193;23016;-79
2021/10/21 05:28:13;;;;;;;19.10;9.40;;;;;;;14.77;59.38;98799.64;116694;1190;22219;-79
2021/10/21 05:30:42;;;;;;;9.40;8.50;;;;;;;14.77;59.54;98812.27;116222;1196;23593;-79
2021/10/21 05:33:11;;;;;;;11.20;10.10;;;;;;;14.77;59.55;98812.92;116183;1198;21909;-78
2021/10/21 05:35:41;;;;;;;12.50;10.60;;;;;;;14.78;59.56;98808.85;116145;1196;23453;-79
2021/10/21 05:38:10;;;;;;;15.60;8.90;;;;;;;14.79;59.55;98814.83;116364;1196;24188;-79
2021/10/21 05:40:39;;;;;;;10.90;9.70;;;;;;;14.81;59.55;98816.77;116177;1190;21939;-79
2021/10/21 05:43:09;;;;;;;12.20;10.20;;;;;;;14.83;59.51;98811.47;116171;1196;21890;-79
2021/10/21 05:45:39;;;;;;;10.00;9.00;;;;;;;14.84;59.39;98806.59;116171;1196;23445;-80
2021/10/21 05:48:16;;;;;;;10.30;9.00;;;;;;;14.84;59.49;98814.04;116421;1195;22930;-79
2021/10/21 05:50:48;;;;;;;12.50;9.30;;;;;;;14.86;59.53;98811.68;116468;1192;23485;-79
2021/10/21 05:53:17;;;;;;;9.50;8.60;;;;;;;14.86;59.56;98808.77;116724;1192;22040;-79
2021/10/21 05:55:46;;;;;;;12.10;10.30;;;;;;;14.84;59.67;98804.95;116773;1192;22312;-79
2021/10/21 05:58:15;;;;;;;11.90;9.20;;;;;;;14.84;60.05;98796.85;116480;1193;23565;-78
2021/10/21 06:00:44;;;;;;;11.50;9.30;;;;;;;14.80;60.24;98791.52;116250;1195;22845;-79
2021/10/21 06:03:13;;;;;;;11.50;10.30;;;;;;;14.78;60.75;98785.56;116336;1194;23508;-78
2021/10/21 06:05:43;;;;;;;11.70;10.20;;;;;;;14.76;60.86;98785.75;116237;1195;21889;-79
2021/10/21 06:08:12;;;;;;;12.40;10.90;;;;;;;14.77;61.32;98783.98;116441;1194;21880;-79
2021/10/21 06:10:40;;;;;;;12.20;10.20;;;;;;;14.75;61.40;98784.05;116489;1194;23468;-79
2021/10/21 06:13:09;;;;;;;11.50;10.20;;;;;;;14.71;61.70;98784.61;116606;1194;21918;-79
2021/10/21 06:15:38;;;;;;;12.00;10.80;;;;;;;14.65;62.10;98781.46;116436;1192;21884;-79
2021/10/21 06:18:11;;;;;;;17.10;11.10;;;;;;;14.60;62.48;98774.07;116406;1193;21921;-79
2021/10/21 06:20:44;;;;;;;12.20;11.00;;;;;;;14.55;62.81;98770.67;116554;1193;21894;-79
2021/10/21 06:23:12;;;;;;;12.10;10.40;;;;;;;14.51;63.28;98770.29;116533;1193;23451;-80
2021/10/21 06:25:41;;;;;;;13.20;11.80;;;;;;;14.44;63.69;98765.81;116695;1193;23567;-80
2021/10/21 06:28:10;;;;;;;13.50;11.70;;;;;;;14.34;64.29;98757.25;116523;1193;21978;-79
2021/10/21 06:30:39;;;;;;;13.30;11.90;;;;;;;14.25;64.63;98752.45;116526;1186;22968;-79
2021/10/21 06:33:09;;;;;;;13.30;12.10;;;;;;;14.17;65.07;98744.70;116732;1193;23660;-79
2021/10/21 06:35:39;;;;;;;13.40;11.50;;;;;;;14.09;65.56;98740.38;116521;1189;22018;-79
2021/10/21 06:38:09;;;;;;;15.60;12.70;;;;;;;14.01;66.00;98732.14;116745;1191;21880;-79
2021/10/21 06:40:39;;;;;;;15.20;13.70;;;;;;;13.93;66.48;98717.41;116762;1191;21910;-79
2021/10/21 06:43:08;;;;;;;15.10;12.90;;;;;;;13.87;67.00;98707.86;116753;1191;21890;-77
2021/10/21 06:45:38;;;;;;;14.60;13.20;;;;;;;13.84;67.19;98702.92;116804;1192;22077;-78
2021/10/21 06:48:08;;;;;;;17.70;14.90;;;;;;;13.83;67.57;98715.20;116806;1191;21882;-78
2021/10/21 06:50:37;;;;;;;18.30;14.10;;;;;;;13.78;68.12;98703.56;116766;1191;22815;-79
2021/10/21 06:53:07;;;;;;;16.40;14.90;;;;;;;13.73;68.25;98712.27;116796;1191;22199;-80
2021/10/21 06:55:36;;;;;;;15.90;14.50;;;;;;;13.68;68.50;98718.14;116563;1189;21893;-78
2021/10/21 06:58:05;;;;;;;15.00;13.60;;;;;;;13.63;68.91;98717.70;116930;1186;21916;-78
2021/10/21 07:00:40;;;;;;;15.10;13.90;;;;;;;13.57;69.19;98715.76;116825;1189;22916;-78
2021/10/21 07:03:10;;;;;;;54.10;47.00;;;;;;;13.54;69.42;98714.88;116877;1186;22778;-79
2021/10/21 07:05:41;;;;;;;19.00;17.10;;;;;;;13.51;69.65;98714.84;116827;1189;23672;-79
2021/10/21 07:08:12;;;;;;;19.40;17.30;;;;;;;13.48;69.80;98715.94;116952;1189;24148;-79
2021/10/21 07:10:41;;;;;;;20.50;18.50;;;;;;;13.45;69.97;98713.08;117006;1189;21896;-78
2021/10/21 07:13:11;;;;;;;18.80;17.10;;;;;;;13.42;70.17;98707.56;116832;1186;22906;-79
2021/10/21 07:16:00;;;;;;;19.30;17.30;;;;;;;13.41;70.20;98701.39;117071;1189;22986;-78
2021/10/21 07:18:30;;;;;;;18.90;16.80;;;;;;;13.36;70.08;98696.23;116950;1189;21967;-78
2021/10/21 07:21:00;;;;;;;19.80;17.70;;;;;;;13.34;70.29;98692.77;117044;1187;21885;-77
2021/10/21 07:23:29;;;;;;;20.30;18.00;;;;;;;13.32;70.10;98688.95;116897;1187;21868;-78
2021/10/21 07:25:59;;;;;;;24.60;18.80;;;;;;;13.33;70.15;98684.08;117075;1189;21876;-78
2021/10/21 07:28:29;;;;;;;23.20;18.90;;;;;;;13.31;70.11;98685.42;117012;1189;21894;-81
2021/10/21 07:31:02;;;;;;;19.20;17.10;;;;;;;13.29;70.17;98686.34;116902;1189;22907;-80
2021/10/21 07:33:31;;;;;;;21.90;18.60;;;;;;;13.28;70.23;98655.27;117109;1189;21922;-79
2021/10/21 07:36:01;;;;;;;18.70;16.50;;;;;;;13.29;70.12;98606.77;117048;1189;22954;-79
2021/10/21 07:38:31;;;;;;;17.50;15.70;;;;;;;13.27;69.93;98624.96;117121;1189;22151;-79
2021/10/21 07:41:01;;;;;;;20.30;17.50;;;;;;;13.24;70.09;98616.80;116916;1189;22999;-80
2021/10/21 07:43:35;;;;;;;19.00;17.00;;;;;;;13.26;70.16;98599.48;117061;1188;21895;-79
2021/10/21 07:46:05;;;;;;;19.20;17.20;;;;;;;13.25;70.04;98593.21;117159;1188;21879;-77
2021/10/21 07:48:36;;;;;;;20.60;16.50;;;;;;;13.24;70.04;98597.66;117006;1189;21920;-78
2021/10/21 07:51:05;;;;;;;23.40;17.90;;;;;;;13.24;70.04;98600.80;116932;1186;22275;-77
2021/10/21 07:53:34;;;;;;;20.70;18.20;;;;;;;13.26;70.25;98612.27;116947;1189;22824;-79
2021/10/21 07:56:06;;;;;;;20.10;18.10;;;;;;;13.26;70.39;98608.29;116934;1192;21886;-85
2021/10/21 07:58:35;;;;;;;18.90;16.90;;;;;;;13.24;70.24;98598.35;116798;1190;21899;-79
2021/10/21 08:01:04;;;;;;;18.10;16.50;;;;;;;13.23;70.20;98590.40;116849;1191;23516;-79
2021/10/21 08:03:33;;;;;;;19.60;17.70;;;;;;;13.27;70.48;98587.52;116826;1187;21945;-80
2021/10/21 08:06:03;;;;;;;19.40;17.40;;;;;;;13.29;70.41;98584.67;116829;1191;21904;-80
2021/10/21 08:08:33;;;;;;;18.90;17.20;;;;;;;13.32;70.32;98574.43;116910;1190;22970;-86
2021/10/21 08:11:03;;;;;;;19.90;18.00;;;;;;;13.36;70.23;98580.80;117085;1190;23478;-80
2021/10/21 08:13:32;;;;;;;19.70;17.90;;;;;;;13.41;70.19;98590.71;116791;1191;22225;-81
2021/10/21 08:16:01;;;;;;;21.00;19.10;;;;;;;13.44;70.03;98596.46;117034;1191;22928;-80
2021/10/21 08:18:31;;;;;;;19.60;17.70;;;;;;;13.47;69.90;98603.82;116948;1191;23542;-80
2021/10/21 08:21:01;;;;;;;24.20;20.50;;;;;;;13.51;69.97;98591.05;116843;1191;21902;-80
2021/10/21 08:23:30;;;;;;;20.40;18.40;;;;;;;13.54;69.87;98596.30;117075;1191;21905;-81
2021/10/21 08:26:00;;;;;;;17.90;16.40;;;;;;;13.54;69.74;98597.13;117012;1191;21905;-79
2021/10/21 08:28:29;;;;;;;19.50;17.40;;;;;;;13.55;69.88;98596.38;116908;1193;24071;-80
2021/10/21 08:30:58;;;;;;;17.40;15.80;;;;;;;13.57;69.76;98589.40;116578;1193;21935;-79
2021/10/21 08:33:27;;;;;;;19.40;17.40;;;;;;;13.54;69.66;98586.79;116755;1189;22944;-80
2021/10/21 08:36:11;;;;;;;18.30;16.50;;;;;;;13.54;69.86;98583.17;116769;1191;21900;-81
2021/10/21 08:38:46;;;;;;;19.80;18.00;;;;;;;13.53;69.96;98567.98;116773;1193;24157;-80
2021/10/21 08:41:16;;;;;;;19.70;17.90;;;;;;;13.53;70.17;98569.99;116703;1193;22019;-79
2021/10/21 08:46:53;;;;;;;21.00;18.80;;;;;;;13.56;70.45;98544.23;117071;1187;21987;-79
2021/10/21 08:49:44;;;;;;;20.10;17.50;;;;;;;13.62;70.81;98534.45;116964;1189;21886;-80
2021/10/21 08:52:16;;;;;;;17.40;15.80;;;;;;;13.70;70.96;98527.50;116966;1186;21934;-79
2021/10/21 08:54:45;;;;;;;20.90;17.40;;;;;;;13.73;71.06;98528.00;116874;1187;23632;-79
2021/10/21 08:57:16;;;;;;;19.30;17.40;;;;;;;13.78;71.02;98528.89;116901;1189;23727;-78
2021/10/21 08:59:46;;;;;;;22.00;19.90;;;;;;;13.85;71.18;98520.88;116825;1189;23437;-79
2021/10/21 09:10:14;;;;;;;14.80;13.50;;;;;;;13.96;71.29;98499.76;116814;1191;23461;-79
2021/10/21 09:12:50;;;;;;;15.30;13.80;;;;;;;14.03;71.26;98504.77;116852;1191;22815;-79
2021/10/21 09:15:24;;;;;;;17.50;13.80;;;;;;;14.09;71.22;98492.80;116426;1193;21881;-80
2021/10/21 09:17:54;;;;;;;16.00;14.50;;;;;;;14.15;71.01;98489.61;116449;1194;21975;-80
2021/10/21 09:20:37;;;;;;;16.40;14.80;;;;;;;14.20;70.86;98486.41;116298;1194;21911;-79
2021/10/21 09:23:16;;;;;;;15.50;14.00;;;;;;;14.24;70.74;98487.23;116518;1193;21927;-79
2021/10/21 09:25:46;;;;;;;16.70;15.10;;;;;;;14.27;70.68;98478.31;116319;1196;21962;-79
2021/10/21 09:28:29;;;;;;;16.40;14.80;;;;;;;14.33;70.73;98479.38;116525;1195;21921;-77
2021/10/21 09:31:05;;;;;;;17.40;15.80;;;;;;;14.41;70.52;98470.91;116497;1193;23490;-79
2021/10/21 09:33:49;;;;;;;16.10;14.20;;;;;;;14.47;70.23;98465.87;116441;1189;21920;-79
2021/10/21 09:36:22;;;;;;;14.80;13.40;;;;;;;14.53;70.11;98462.82;116515;1193;22092;-79
2021/10/21 09:38:58;;;;;;;15.20;11.30;;;;;;;14.60;70.03;98459.00;116544;1193;21922;-79
2021/10/21 09:41:33;;;;;;;11.70;10.30;;;;;;;14.67;70.05;98454.77;116776;1193;21919;-79
2021/10/21 09:44:23;;;;;;;13.90;9.70;;;;;;;14.78;69.85;98447.88;116710;1189;24159;-80
2021/10/21 09:46:53;;;;;;;13.00;9.20;;;;;;;14.94;69.70;98458.34;117285;1188;22941;-80
2021/10/21 09:49:36;;;;;;;11.40;7.30;;;;;;;15.10;69.31;98462.94;116851;1189;22906;-80
2021/10/21 09:52:15;;;;;;;9.80;7.60;;;;;;;15.26;68.81;98463.91;116489;1191;21905;-79
2021/10/21 09:54:46;;;;;;;11.00;7.50;;;;;;;15.41;68.06;98457.64;116669;1180;21895;-80
2021/10/21 09:57:29;;;;;;;10.90;7.40;;;;;;;15.55;67.27;98452.50;116751;1192;23545;-78
2021/10/21 10:00:15;;;;;;;7.30;6.60;;;;;;;15.67;66.56;98454.97;116809;1192;23455;-80
2021/10/21 10:02:44;;;;;;;10.60;8.00;;;;;;;15.78;65.93;98457.98;116844;1191;21974;-79
2021/10/21 10:05:17;;;;;;;10.70;8.50;;;;;;;15.86;65.46;98452.39;116854;1195;22151;-78
2021/10/21 10:07:47;;;;;;;10.70;8.40;;;;;;;15.93;65.10;98447.84;116471;1195;22834;-79
2021/10/21 10:10:16;;;;;;;10.30;8.50;;;;;;;16.01;64.81;98447.65;116285;1195;21896;-78
2021/10/21 10:12:46;;;;;;;15.00;8.10;;;;;;;16.06;64.31;98439.72;116158;1196;21936;-78
2021/10/21 10:15:16;;;;;;;12.20;8.20;;;;;;;16.09;63.89;98437.20;115576;1201;22944;-78
2021/10/21 10:17:45;;;;;;;8.60;7.70;;;;;;;16.13;63.64;98428.30;115766;1201;23526;-79
2021/10/21 10:20:25;;;;;;;12.10;8.80;;;;;;;16.17;63.12;98430.95;115565;1202;22130;-77
2021/10/21 10:22:56;;;;;;;9.50;7.80;;;;;;;16.20;63.07;98424.95;115568;1199;21917;-76
2021/10/21 10:25:26;;;;;;;11.80;7.30;;;;;;;16.28;63.14;98416.02;115949;1199;21902;-77
2021/10/21 10:28:04;;;;;;;9.10;7.70;;;;;;;16.35;62.91;98405.22;115795;1198;21993;-77
2021/10/21 10:30:48;;;;;;;10.10;7.60;;;;;;;16.39;62.38;98402.33;116292;1196;22282;-78
2021/10/21 10:33:33;;;;;;;9.00;7.10;;;;;;;16.43;61.86;98402.57;116070;1197;21902;-77
2021/10/21 10:36:27;;;;;;;11.80;7.50;;;;;;;16.47;61.75;98385.92;116264;1196;21955;-78
2021/10/21 10:39:01;;;;;;;7.00;6.30;;;;;;;16.57;61.54;98376.51;116385;1193;21915;-79
2021/10/21 10:41:59;;;;;;;10.00;6.00;;;;;;;16.73;62.00;98364.98;116509;1190;21914;-78
2021/10/21 10:44:34;;;;;;;12.70;6.20;;;;;;;17.38;62.24;98356.98;116253;1196;23442;-80
2021/10/21 10:47:10;;;;;;;8.00;5.90;;;;;;;17.88;59.91;98349.79;116444;1195;22751;-79
2021/10/21 10:49:39;;;;;;;8.10;5.10;;;;;;;18.27;57.58;98344.66;116330;1195;21883;-78
2021/10/21 10:52:17;;;;;;;6.30;4.50;;;;;;;18.43;55.87;98337.50;116519;1193;24186;-78
2021/10/21 10:55:19;;;;;;;10.60;4.90;;;;;;;18.45;55.41;98331.71;116524;1193;22751;-78
2021/10/21 10:57:59;;;;;;;11.30;4.90;;;;;;;18.51;54.69;98332.89;116269;1196;23011;-79
2021/10/21 11:01:15;;;;;;;12.40;5.50;;;;;;;18.62;54.28;98339.36;116294;1196;21962;-77
2021/10/21 11:03:56;;;;;;;7.70;3.80;;;;;;;18.59;53.70;98344.18;115943;1200;21890;-78
2021/10/21 11:06:26;;;;;;;8.20;4.40;;;;;;;18.56;53.51;98345.67;115909;1200;23507;-78
2021/10/21 11:09:05;;;;;;;6.10;4.20;;;;;;;18.58;53.71;98341.87;115931;1197;21898;-79
2021/10/21 11:12:02;;;;;;;9.60;4.60;;;;;;;18.59;53.28;98331.71;115894;1200;21931;-78
2021/10/21 11:14:31;;;;;;;8.60;3.50;;;;;;;18.60;53.27;98316.52;115930;1200;21994;-78
2021/10/21 11:17:00;;;;;;;14.90;3.90;;;;;;;18.64;53.23;98321.11;115974;1200;22837;-78
2021/10/21 11:19:51;;;;;;;11.90;3.70;;;;;;;18.66;52.93;98318.86;115568;1202;22015;-79
2021/10/21 11:22:20;;;;;;;9.70;4.20;;;;;;;18.67;52.68;98327.80;115842;1200;21894;-78
2021/10/21 11:25:01;;;;;;;7.50;3.40;;;;;;;18.68;52.40;98332.46;116098;1199;23399;-80
2021/10/21 11:27:41;;;;;;;8.80;3.30;;;;;;;18.68;52.20;98338.77;116085;1196;21911;-80
2021/10/21 11:30:18;;;;;;;30.90;5.30;;;;;;;18.69;51.70;98339.94;115552;1203;23025;-77
2021/10/21 11:33:11;;;;;;;15.90;5.00;;;;;;;18.63;51.15;98341.23;115268;1205;21922;-77
2021/10/21 11:35:40;;;;;;;14.20;4.50;;;;;;;18.61;50.66;98348.30;115447;1198;23612;-78
2021/10/21 11:38:19;;;;;;;10.60;3.50;;;;;;;18.59;50.48;98356.20;115550;1201;23669;-78
2021/10/21 11:40:53;;;;;;;14.50;4.60;;;;;;;18.59;50.53;98355.89;115793;1198;21906;-77
2021/10/21 11:43:27;;;;;;;31.40;6.20;;;;;;;18.62;50.33;98365.84;115941;1198;22285;-77
2021/10/21 11:46:03;;;;;;;117.60;11.70;;;;;;;18.63;49.28;98376.05;115960;1200;23478;-77
2021/10/21 11:48:40;;;;;;;53.10;6.30;;;;;;;18.63;48.18;98383.75;116039;1197;22764;-77